Terminal Aerodrome Forecast
Issued by NWS

Home | Current Version | Previous Version | Text Only | Print | Product List | Glossary On
Versions: 1 2 3 4 5 6 7 8 9 10 11 12 13 14 15 16 17
000
FTUS41 KBGM 281700
TAFITH
TAF
KITH 281733Z 2818/0118 VRB05KT P6SM SCT250
     FM010800 12007KT P6SM OVC100
     FM011000 16009KT P6SM OVC040
      TEMPO 0112/0116 2SM -SN BR OVC025
     FM011600 17009KT 2SM -SN BR OVC010=

USA.gov is the U.S. government's official web portal to all federal, state and local government web resources and services.